createdAt,value
2022-10-12T00:00:20.265Z,76.60
2022-10-12T00:03:24.945Z,77.18
2022-10-12T00:06:28.408Z,77.88
2022-10-12T00:09:31.624Z,77.10
2022-10-12T00:12:35.297Z,75.80
2022-10-12T00:15:39.296Z,76.03
2022-10-12T00:18:43.938Z,75.86
2022-10-12T00:21:47.183Z,77.20
2022-10-12T00:24:50.466Z,75.87
2022-10-12T00:27:53.633Z,76.59
2022-10-12T00:30:56.807Z,76.11
2022-10-12T00:34:03.229Z,74.99
2022-10-12T00:37:25.473Z,73.99
2022-10-12T00:40:32.273Z,74.09
2022-10-12T00:43:39.066Z,74.26
2022-10-12T00:46:46.225Z,73.50
2022-10-12T00:49:55.013Z,72.64
2022-10-12T00:53:04.279Z,72.54
2022-10-12T00:56:12.304Z,71.99
2022-10-12T00:59:20.879Z,71.65
2022-10-12T01:02:25.989Z,71.59
2022-10-12T01:05:30.539Z,71.97
2022-10-12T01:08:34.384Z,71.51
2022-10-12T01:11:37.574Z,70.81
2022-10-12T01:14:40.819Z,70.65
2022-10-12T01:17:53.376Z,70.70
2022-10-12T01:21:11.785Z,71.82
2022-10-12T01:24:48.647Z,72.22
2022-10-12T01:27:55.886Z,72.04
2022-10-12T01:31:05.931Z,71.96
2022-10-12T01:34:14.415Z,71.55
2022-10-12T01:37:25.299Z,70.79
2022-10-12T01:40:34.814Z,70.86
2022-10-12T01:43:40.043Z,70.81
2022-10-12T01:46:46.564Z,70.88
2022-10-12T01:49:49.884Z,71.76
2022-10-12T01:53:04.808Z,70.92
2022-10-12T01:56:12.935Z,71.20
2022-10-12T01:59:27.509Z,71.09
2022-10-12T02:02:40.230Z,71.50
2022-10-12T02:05:49.539Z,71.54
2022-10-12T02:08:59.916Z,71.23
2022-10-12T02:12:07.853Z,70.63
2022-10-12T02:15:15.764Z,70.19
2022-10-12T02:18:22.673Z,69.84
2022-10-12T02:21:31.223Z,69.52
2022-10-12T02:24:38.176Z,69.04
2022-10-12T02:27:47.516Z,69.31
2022-10-12T02:30:55.429Z,69.53
2022-10-12T02:34:05.937Z,69.88
2022-10-12T02:37:13.527Z,69.49
2022-10-12T02:40:22.989Z,69.62
2022-10-12T02:43:30.786Z,70.62
2022-10-12T02:46:36.203Z,69.93
2022-10-12T02:49:42.646Z,70.17
2022-10-12T02:52:46.428Z,70.30
2022-10-12T02:56:02.036Z,70.10
2022-10-12T02:59:05.239Z,69.99
2022-10-12T03:02:09.059Z,69.77
2022-10-12T03:05:13.623Z,69.83
2022-10-12T03:08:16.866Z,70.09
2022-10-12T03:11:20.284Z,70.31
2022-10-12T03:14:23.480Z,69.80
2022-10-12T03:17:26.701Z,69.35
2022-10-12T03:20:31.272Z,69.93
2022-10-12T03:23:34.599Z,69.98
2022-10-12T03:26:37.881Z,69.20
2022-10-12T03:29:41.149Z,70.41
2022-10-12T03:32:44.310Z,70.00
2022-10-12T03:35:49.296Z,69.85
2022-10-12T03:38:52.635Z,70.48
2022-10-12T03:41:55.806Z,69.96
2022-10-12T03:44:58.966Z,70.04
2022-10-12T03:48:05.120Z,70.71
2022-10-12T03:51:09.952Z,71.60
2022-10-12T03:54:13.120Z,70.78
2022-10-12T03:57:16.303Z,70.44
2022-10-12T04:00:19.995Z,70.16
2022-10-12T04:03:23.597Z,70.51
2022-10-12T04:06:28.213Z,70.83
2022-10-12T04:09:31.554Z,70.28
2022-10-12T04:12:34.956Z,70.43
2022-10-12T04:15:38.268Z,70.36
2022-10-12T04:18:41.615Z,70.94
2022-10-12T04:21:46.205Z,71.40
2022-10-12T04:24:49.409Z,71.70
2022-10-12T04:27:52.585Z,72.10
2022-10-12T04:30:55.843Z,72.52
2022-10-12T04:33:59.130Z,72.77
2022-10-12T04:37:03.870Z,73.08
2022-10-12T04:40:08.439Z,71.99
2022-10-12T04:43:11.793Z,72.06
2022-10-12T04:46:15.492Z,71.91
2022-10-12T04:49:18.678Z,71.50
2022-10-12T04:52:23.354Z,71.69
2022-10-12T04:55:26.713Z,71.22
2022-10-12T04:58:29.951Z,71.45
2022-10-12T05:01:33.221Z,71.12
2022-10-12T05:04:36.496Z,70.69
2022-10-12T05:07:41.323Z,71.40
2022-10-12T05:10:46.222Z,69.99
2022-10-12T05:13:49.476Z,69.89
2022-10-12T05:16:52.705Z,70.12
2022-10-12T05:19:55.826Z,70.71
2022-10-12T05:23:00.700Z,70.67
2022-10-12T05:26:04.449Z,70.34
2022-10-12T05:29:07.743Z,70.19
2022-10-12T05:32:10.954Z,70.61
2022-10-12T05:35:14.238Z,70.59
2022-10-12T05:38:19.160Z,69.88
2022-10-12T05:41:22.333Z,69.90
2022-10-12T05:44:25.861Z,70.91
2022-10-12T05:47:29.147Z,70.77
2022-10-12T05:50:32.348Z,69.70
2022-10-12T05:53:37.901Z,70.61
2022-10-12T05:56:41.203Z,71.09
2022-10-12T05:59:44.566Z,70.43
2022-10-12T06:02:47.753Z,70.83
2022-10-12T06:05:51.004Z,70.99
2022-10-12T06:08:55.580Z,70.90
2022-10-12T06:11:59.053Z,69.82
2022-10-12T06:15:06.122Z,69.53
2022-10-12T06:18:09.407Z,70.55
2022-10-12T06:24:37.625Z,68.57
2022-10-12T06:27:40.865Z,68.34
2022-10-12T06:30:44.121Z,68.80
2022-10-12T06:33:47.340Z,67.67
2022-10-12T06:36:50.553Z,67.27
2022-10-12T06:39:55.161Z,67.63
2022-10-12T06:43:02.664Z,67.89
2022-10-12T06:46:06.285Z,69.43
2022-10-12T06:49:10.428Z,68.31
2022-10-12T06:52:13.608Z,67.56
2022-10-12T06:55:18.424Z,67.35
2022-10-12T06:58:21.643Z,67.51
2022-10-12T07:01:24.953Z,66.79
2022-10-12T07:04:28.400Z,66.69
2022-10-12T07:07:32.792Z,66.54
2022-10-12T07:10:37.434Z,66.83
2022-10-12T07:13:41.065Z,65.71
2022-10-12T07:16:44.329Z,65.68
2022-10-12T07:19:47.756Z,65.23
2022-10-12T07:22:50.930Z,64.70
2022-10-12T07:25:56.125Z,64.22
2022-10-12T07:28:59.365Z,64.69
2022-10-12T07:32:02.861Z,64.28
2022-10-12T07:35:06.959Z,63.46
2022-10-12T07:38:11.116Z,63.53
2022-10-12T07:41:16.508Z,62.42
2022-10-12T07:44:21.038Z,62.79
2022-10-12T07:47:24.414Z,61.96
2022-10-12T07:50:27.700Z,62.22
2022-10-12T07:53:30.916Z,61.32
2022-10-12T07:56:35.726Z,61.79
2022-10-12T07:59:39.126Z,61.91
2022-10-12T08:02:42.472Z,61.22
2022-10-12T08:05:45.699Z,61.09
2022-10-12T08:08:49.441Z,60.93
2022-10-12T08:11:54.187Z,59.92
2022-10-12T08:14:57.453Z,61.23
2022-10-12T08:18:00.746Z,60.71
2022-10-12T08:21:05.702Z,59.68
2022-10-12T08:24:09.716Z,58.75
2022-10-12T08:27:14.321Z,58.08
2022-10-12T08:30:17.675Z,58.10
2022-10-12T08:33:21.304Z,57.29
2022-10-12T08:36:24.570Z,56.81
2022-10-12T08:39:28.165Z,57.44
2022-10-12T08:42:45.613Z,56.71
2022-10-12T08:45:53.929Z,56.52
2022-10-12T08:49:01.828Z,56.33
2022-10-12T08:52:07.115Z,56.29
2022-10-12T08:55:21.909Z,55.14
2022-10-12T08:58:30.083Z,55.94
2022-10-12T09:01:38.652Z,55.76
2022-10-12T09:04:51.968Z,54.11
2022-10-12T09:07:59.447Z,54.18
2022-10-12T09:11:13.388Z,53.97
2022-10-12T09:14:23.360Z,54.61
2022-10-12T09:17:30.765Z,54.62
2022-10-12T09:20:41.622Z,54.41
2022-10-12T09:23:45.396Z,55.20
2022-10-12T09:26:53.223Z,54.12
2022-10-12T09:30:02.897Z,53.76
2022-10-12T09:33:18.120Z,53.92
2022-10-12T09:36:23.492Z,53.80
2022-10-12T09:39:31.828Z,53.50
2022-10-12T09:42:35.746Z,52.92
2022-10-12T09:45:40.643Z,53.63
2022-10-12T09:48:58.594Z,52.69
2022-10-12T09:52:02.143Z,52.43
2022-10-12T09:55:09.153Z,52.03
2022-10-12T09:58:21.784Z,51.68
2022-10-12T10:01:29.494Z,52.47
2022-10-12T10:04:33.118Z,52.30
2022-10-12T10:07:36.451Z,50.98
2022-10-12T10:10:49.904Z,50.34
2022-10-12T10:13:55.049Z,50.31
2022-10-12T10:16:59.796Z,50.32
2022-10-12T10:20:06.444Z,49.83
2022-10-12T10:23:25.778Z,49.25
2022-10-12T10:26:32.008Z,48.46
2022-10-12T10:29:37.961Z,48.70
2022-10-12T10:32:42.702Z,48.37
2022-10-12T10:36:01.400Z,49.06
2022-10-12T10:39:08.327Z,47.93
2022-10-12T10:42:13.187Z,47.94
2022-10-12T10:45:25.587Z,47.43
2022-10-12T10:48:33.545Z,47.23
2022-10-12T10:51:43.149Z,46.20
2022-10-12T10:54:46.626Z,45.30
2022-10-12T10:57:59.062Z,45.28
2022-10-12T11:01:07.248Z,44.67
2022-10-12T11:04:18.818Z,45.32
2022-10-12T11:07:29.185Z,47.27
2022-10-12T11:10:36.284Z,46.52
2022-10-12T11:13:44.257Z,46.92
2022-10-12T11:16:52.240Z,48.04
2022-10-12T11:20:07.395Z,46.92
2022-10-12T11:23:19.824Z,46.32
2022-10-12T11:26:29.708Z,45.90
2022-10-12T11:29:33.035Z,46.58
2022-10-12T11:32:40.128Z,45.96
2022-10-12T11:35:47.167Z,45.47
2022-10-12T11:38:54.665Z,46.52
2022-10-12T11:42:20.823Z,47.16
2022-10-12T11:45:28.673Z,47.91
2022-10-12T11:48:38.139Z,48.51
2022-10-12T11:51:46.959Z,48.26
2022-10-12T11:54:59.524Z,48.36
2022-10-12T11:58:13.572Z,48.06
2022-10-12T12:01:41.652Z,47.70
2022-10-12T12:04:47.209Z,47.71
2022-10-12T12:07:54.545Z,47.32
2022-10-12T12:11:07.580Z,47.08
2022-10-12T12:14:46.736Z,47.06
2022-10-12T12:18:13.658Z,48.00
2022-10-12T12:21:17.019Z,48.28
2022-10-12T12:24:21.744Z,48.02
2022-10-12T12:27:32.883Z,48.33
2022-10-12T12:30:39.130Z,49.24
2022-10-12T12:33:46.333Z,48.58
2022-10-12T12:36:51.746Z,49.72
2022-10-12T12:39:58.961Z,49.17
2022-10-12T12:43:37.608Z,49.39
2022-10-12T12:47:45.220Z,49.18
2022-10-12T12:50:42.239Z,48.79
2022-10-12T12:53:50.229Z,48.59
2022-10-12T12:57:28.518Z,47.42
2022-10-12T13:00:39.419Z,46.78
2022-10-12T13:04:16.732Z,46.14
2022-10-12T13:07:58.161Z,46.08
2022-10-12T13:11:39.038Z,46.30
2022-10-12T13:15:15.254Z,46.32
2022-10-12T13:18:48.259Z,46.62
2022-10-12T13:21:54.182Z,47.28
2022-10-12T13:25:02.044Z,46.88
2022-10-12T13:28:11.741Z,47.49
2022-10-12T13:31:20.326Z,47.07
2022-10-12T13:34:28.328Z,46.10
2022-10-12T13:37:33.434Z,46.81
2022-10-12T13:40:41.527Z,48.89
2022-10-12T13:43:47.131Z,49.10
2022-10-12T13:46:54.955Z,49.61
2022-10-12T13:49:58.679Z,49.35
2022-10-12T13:53:01.829Z,48.88
2022-10-12T13:56:10.449Z,49.01
2022-10-12T13:59:19.223Z,48.56
2022-10-12T14:02:26.832Z,48.16
2022-10-12T14:05:32.230Z,48.15
2022-10-12T14:08:36.709Z,48.29
2022-10-12T14:11:41.631Z,47.86
2022-10-12T14:14:47.749Z,46.99
2022-10-12T14:17:52.757Z,47.23
2022-10-12T14:21:07.380Z,47.19
2022-10-12T14:24:11.732Z,46.94
2022-10-12T14:27:24.336Z,46.70
2022-10-12T14:30:31.076Z,46.94
2022-10-12T14:33:35.676Z,47.35
2022-10-12T14:36:39.076Z,47.53
2022-10-12T14:39:43.812Z,47.76
2022-10-12T14:42:55.968Z,47.55
2022-10-12T14:45:59.200Z,47.76
2022-10-12T14:49:03.819Z,47.80
2022-10-12T14:52:07.647Z,47.33
2022-10-12T14:55:16.817Z,47.50
2022-10-12T14:58:20.057Z,47.57
2022-10-12T15:01:24.564Z,47.98
2022-10-12T15:04:29.246Z,48.58
2022-10-12T15:07:34.660Z,48.03
2022-10-12T15:10:38.576Z,48.09
2022-10-12T15:13:42.548Z,48.47
2022-10-12T15:16:45.803Z,48.25
2022-10-12T15:19:52.460Z,48.00
2022-10-12T15:22:55.657Z,48.22
2022-10-12T15:26:00.403Z,48.02
2022-10-12T15:29:03.625Z,48.14
2022-10-12T15:32:10.294Z,48.30
2022-10-12T15:35:20.734Z,48.88
2022-10-12T15:38:24.132Z,48.52
2022-10-12T15:41:27.946Z,48.93
2022-10-12T15:44:31.177Z,49.71
2022-10-12T15:47:34.386Z,50.68
2022-10-12T15:50:41.412Z,50.88
2022-10-12T15:53:45.066Z,51.36
2022-10-12T15:56:49.595Z,51.97
2022-10-12T15:59:53.428Z,51.84
2022-10-12T16:02:57.879Z,52.75
2022-10-12T16:06:02.496Z,53.55
2022-10-12T16:09:05.769Z,53.86
2022-10-12T16:12:09.037Z,54.32
2022-10-12T16:15:16.440Z,54.01
2022-10-12T16:18:19.894Z,54.33
2022-10-12T16:21:24.551Z,55.31
2022-10-12T16:24:27.757Z,56.06
2022-10-12T16:27:31.083Z,55.70
2022-10-12T16:30:34.384Z,56.29
2022-10-12T16:33:37.766Z,56.65
2022-10-12T16:36:42.372Z,57.14
2022-10-12T16:39:45.926Z,57.42
2022-10-12T16:42:53.724Z,58.24
2022-10-12T16:45:57.520Z,57.76
2022-10-12T16:49:00.761Z,57.86
2022-10-12T16:52:05.439Z,57.73
2022-10-12T16:55:09.473Z,59.01
2022-10-12T16:58:12.776Z,58.02
2022-10-12T17:01:16.031Z,58.01
2022-10-12T17:04:19.586Z,57.96
2022-10-12T17:07:24.283Z,58.16
2022-10-12T17:10:27.462Z,58.34
2022-10-12T17:13:32.923Z,59.94
2022-10-12T17:16:52.368Z,59.59
2022-10-12T17:19:55.754Z,61.21
2022-10-12T17:23:00.414Z,60.94
2022-10-12T17:26:03.624Z,60.91
2022-10-12T17:29:07.556Z,60.90
2022-10-12T17:32:12.380Z,61.02
2022-10-12T17:35:18.961Z,62.03
2022-10-12T17:38:23.617Z,62.00
2022-10-12T17:41:28.863Z,61.74
2022-10-12T17:44:32.287Z,62.63
2022-10-12T17:47:35.525Z,63.71
2022-10-12T17:50:38.752Z,63.09
2022-10-12T17:53:44.172Z,63.85
2022-10-12T17:56:47.582Z,63.98
2022-10-12T17:59:50.783Z,64.05
2022-10-12T18:02:54.092Z,63.60
2022-10-12T18:05:57.322Z,63.86
2022-10-12T18:09:03.318Z,63.32
2022-10-12T18:12:06.854Z,63.24
2022-10-12T18:15:10.694Z,62.43
2022-10-12T18:18:15.378Z,62.87
2022-10-12T18:21:19.865Z,62.81
2022-10-12T18:24:25.160Z,63.79
2022-10-12T18:27:28.371Z,64.27
2022-10-12T18:30:31.527Z,64.98
2022-10-12T18:33:35.609Z,63.63
2022-10-12T18:36:40.009Z,63.09
2022-10-12T18:39:44.655Z,62.53
2022-10-12T18:42:48.149Z,62.43
2022-10-12T18:45:51.343Z,61.56
2022-10-12T18:48:54.569Z,60.91
2022-10-12T18:51:58.240Z,60.10
2022-10-12T18:55:03.045Z,59.87
2022-10-12T18:58:06.916Z,59.59
2022-10-12T19:01:11.758Z,59.17
2022-10-12T19:04:15.097Z,59.15
2022-10-12T19:07:18.336Z,59.16
2022-10-12T19:10:23.121Z,58.21
2022-10-12T19:13:26.450Z,58.81
2022-10-12T19:16:30.784Z,57.89
2022-10-12T19:19:34.029Z,56.93
2022-10-12T19:22:37.397Z,56.04
2022-10-12T19:25:42.093Z,55.41
2022-10-12T19:28:45.738Z,55.27
2022-10-12T19:31:50.934Z,55.21
2022-10-12T19:34:54.162Z,54.62
2022-10-12T19:37:57.607Z,54.37
2022-10-12T19:41:02.516Z,54.54
2022-10-12T19:44:06.122Z,54.21
2022-10-12T19:47:09.346Z,54.34
2022-10-12T19:50:12.566Z,54.61
2022-10-12T19:53:16.151Z,54.56
2022-10-12T19:56:22.041Z,54.27
2022-10-12T19:59:25.330Z,54.78
2022-10-12T20:02:28.550Z,54.47
2022-10-12T20:05:31.769Z,54.15
2022-10-12T20:08:35.440Z,53.41
2022-10-12T20:11:40.242Z,54.33
2022-10-12T20:14:43.504Z,55.01
2022-10-12T20:17:46.699Z,56.13
2022-10-12T20:20:50.455Z,56.46
2022-10-12T20:23:53.684Z,56.98
2022-10-12T20:26:58.359Z,62.12
2022-10-12T20:30:01.562Z,60.49
2022-10-12T20:33:05.557Z,60.35
2022-10-12T20:36:11.155Z,62.16
2022-10-12T20:39:14.499Z,63.34
2022-10-12T20:42:21.971Z,63.55
2022-10-12T20:45:25.571Z,63.69
2022-10-12T20:48:28.787Z,62.57
2022-10-12T20:51:34.180Z,63.00
2022-10-12T20:54:37.784Z,63.32
2022-10-12T20:57:42.415Z,63.31
2022-10-12T21:00:45.762Z,63.28
2022-10-12T21:03:48.995Z,62.49
2022-10-12T21:06:53.163Z,62.95
2022-10-12T21:09:56.370Z,62.75
2022-10-12T21:13:00.959Z,63.72
2022-10-12T21:16:04.189Z,64.35
2022-10-12T21:19:07.841Z,63.76
2022-10-12T21:22:11.764Z,63.83
2022-10-12T21:25:15.133Z,63.48
2022-10-12T21:28:20.069Z,63.06
2022-10-12T21:31:27.018Z,62.77
2022-10-12T21:34:32.755Z,63.47
2022-10-12T21:37:36.011Z,63.24
2022-10-12T21:40:39.308Z,63.86
2022-10-12T21:43:44.459Z,65.22
2022-10-12T21:46:47.699Z,65.10
2022-10-12T21:49:50.880Z,65.21
2022-10-12T21:52:59.329Z,65.34
2022-10-12T21:56:06.994Z,65.44
2022-10-12T21:59:12.057Z,65.57
2022-10-12T22:02:15.379Z,65.41
2022-10-12T22:05:18.770Z,66.09
2022-10-12T22:08:22.009Z,65.41
2022-10-12T22:11:27.262Z,64.93
2022-10-12T22:14:31.845Z,65.37
2022-10-12T22:17:36.004Z,64.76
2022-10-12T22:20:39.229Z,66.06
2022-10-12T22:23:43.067Z,66.60
2022-10-12T22:26:46.607Z,68.15
2022-10-12T22:29:51.873Z,67.75
2022-10-12T22:32:55.041Z,68.31
2022-10-12T22:36:00.154Z,68.04
2022-10-12T22:39:04.685Z,67.16
2022-10-12T22:42:07.892Z,66.55
2022-10-12T22:45:12.603Z,65.90
2022-10-12T22:48:15.865Z,67.02
2022-10-12T22:51:22.705Z,65.26
2022-10-12T22:54:25.958Z,65.62
2022-10-12T22:57:31.085Z,65.04
2022-10-12T23:00:35.803Z,63.87
2022-10-12T23:03:39.853Z,62.66
2022-10-12T23:06:45.870Z,62.69
2022-10-12T23:09:49.806Z,61.90
2022-10-12T23:12:53.002Z,61.81
2022-10-12T23:16:02.389Z,61.98
2022-10-12T23:19:07.024Z,62.45
2022-10-12T23:22:10.259Z,63.03
2022-10-12T23:25:13.453Z,62.84
2022-10-12T23:28:16.719Z,63.37
2022-10-12T23:31:23.050Z,63.11
2022-10-12T23:34:29.175Z,62.69
2022-10-12T23:37:32.389Z,63.91
2022-10-12T23:40:36.265Z,63.64
2022-10-12T23:43:42.986Z,63.68
2022-10-12T23:46:47.586Z,65.42
2022-10-12T23:49:50.838Z,65.29
2022-10-12T23:52:54.165Z,65.21
2022-10-12T23:55:57.784Z,64.95
2022-10-12T23:59:02.457Z,64.80
